Time;durP1;ratioP1;P1;durP2;ratioP2;P2;SDS_P1;SDS_P2;PMS_P1;PMS_P2;Temp;Humidity;BMP_temperature;BMP_pressure;BME280_temperature;BME280_humidity;BME280_pressure;Samples;Min_cycle;Max_cycle;Signal;HPM_P1;HPM_P2
2022/09/07 00:00:22;;;;;;;5.75;2.40;;;23.10;69.20;;;;;;5113996;28;20030;-74
2022/09/07 00:02:47;;;;;;;4.47;2.15;;;23.10;69.20;;;;;;5114132;28;20024;-74
2022/09/07 00:05:13;;;;;;;5.82;2.33;;;23.10;69.20;;;;;;5113974;28;20020;-74
2022/09/07 00:07:39;;;;;;;3.17;2.05;;;23.10;69.30;;;;;;5111600;28;20031;-74
2022/09/07 00:10:05;;;;;;;5.03;2.40;;;23.00;69.20;;;;;;5073302;28;20024;-74
2022/09/07 00:12:30;;;;;;;5.40;2.40;;;23.10;69.30;;;;;;5073209;28;20497;-74
2022/09/07 00:14:56;;;;;;;5.65;1.98;;;23.00;69.20;;;;;;5073216;28;20099;-74
2022/09/07 00:17:21;;;;;;;5.35;2.33;;;23.00;69.20;;;;;;5109125;28;20111;-74
2022/09/07 00:19:47;;;;;;;6.43;2.70;;;23.00;69.20;;;;;;5113707;28;20133;-74
2022/09/07 00:22:13;;;;;;;4.68;2.28;;;23.10;69.30;;;;;;5113527;28;20042;-74
2022/09/07 00:24:38;;;;;;;2.78;1.80;;;23.10;69.30;;;;;;5113891;28;20024;-74
2022/09/07 00:27:04;;;;;;;5.22;2.17;;;23.00;69.30;;;;;;5113677;28;20024;-74
2022/09/07 00:29:30;;;;;;;4.90;2.05;;;23.00;69.30;;;;;;5113341;28;20429;-74
2022/09/07 00:31:55;;;;;;;3.67;1.95;;;23.00;69.30;;;;;;5113457;28;20059;-74
2022/09/07 00:34:21;;;;;;;3.20;1.98;;;23.00;69.30;;;;;;5113277;28;20069;-74
2022/09/07 00:36:46;;;;;;;3.40;1.90;;;23.00;69.30;;;;;;5113671;28;20111;-74
2022/09/07 00:39:12;;;;;;;4.13;2.20;;;23.00;69.30;;;;;;5113193;28;20069;-74
2022/09/07 00:41:38;;;;;;;4.63;2.33;;;23.00;69.40;;;;;;5112112;28;20479;-74
2022/09/07 00:44:41;;;;;;;3.70;2.13;;;23.00;69.30;;;;;;5113206;28;20027;-74
2022/09/07 00:47:11;;;;;;;3.83;2.20;;;23.00;69.30;;;;;;5113127;28;20123;-74
2022/09/07 00:49:37;;;;;;;4.93;2.10;;;23.00;69.40;;;;;;5112028;28;20420;-74
2022/09/07 00:52:03;;;;;;;3.42;2.17;;;23.00;69.40;;;;;;5095162;28;20043;-74
2022/09/07 00:54:39;;;;;;;3.88;1.63;;;23.00;69.40;;;;;;5095100;28;20034;-74
2022/09/07 00:57:05;;;;;;;6.13;2.10;;;23.00;69.40;;;;;;5113094;28;20113;-74
2022/09/07 00:59:36;;;;;;;5.80;2.38;;;23.00;69.40;;;;;;5094782;28;20471;-74
2022/09/07 01:02:02;;;;;;;5.20;2.05;;;23.00;69.40;;;;;;5094805;28;20034;-74
2022/09/07 01:04:28;;;;;;;3.72;1.90;;;23.00;69.40;;;;;;5094848;28;20024;-74
2022/09/07 01:06:54;;;;;;;3.30;2.22;;;23.00;69.40;;;;;;5112019;28;20016;-74
2022/09/07 01:09:21;;;;;;;3.58;1.92;;;23.00;69.40;;;;;;5082241;28;20492;-74
2022/09/07 01:11:50;;;;;;;4.38;2.00;;;23.00;69.50;;;;;;5071203;28;20547;-74
2022/09/07 01:14:17;;;;;;;3.08;1.85;;;23.00;69.50;;;;;;5070872;28;20052;-74
2022/09/07 01:17:14;;;;;;;2.97;1.83;;;23.00;69.50;;;;;;5097139;28;20027;-74
2022/09/07 01:20:16;;;;;;;5.47;2.10;;;23.00;69.50;;;;;;5111591;28;20304;-74
2022/09/07 01:22:57;;;;;;;3.38;1.80;;;23.00;69.40;;;;;;5112837;28;20032;-75
2022/09/07 01:25:35;;;;;;;5.63;2.17;;;23.00;69.50;;;;;;5112809;28;20043;-74
2022/09/07 01:28:02;;;;;;;3.28;1.80;;;23.00;69.50;;;;;;5112472;28;20024;-74
2022/09/07 01:30:29;;;;;;;4.75;2.40;;;23.00;69.50;;;;;;5111414;28;20094;-74
2022/09/07 01:33:12;;;;;;;4.35;2.30;;;23.00;69.50;;;;;;5094623;28;20019;-74
2022/09/07 01:35:44;;;;;;;3.90;1.85;;;23.00;69.50;;;;;;5112841;28;20031;-74
2022/09/07 01:38:14;;;;;;;5.00;2.10;;;23.00;69.50;;;;;;5112506;28;20031;-74
2022/09/07 01:41:09;;;;;;;3.55;2.15;;;23.00;69.50;;;;;;5111458;28;20344;-74
2022/09/07 01:43:37;;;;;;;4.60;1.65;;;23.00;69.40;;;;;;5029732;28;20075;-74
2022/09/07 01:46:06;;;;;;;4.72;2.28;;;23.00;69.50;;;;;;5013527;28;20448;-74
2022/09/07 01:48:31;;;;;;;4.22;2.28;;;23.00;69.50;;;;;;5013326;28;20054;-74
2022/09/07 01:51:00;;;;;;;4.75;2.20;;;23.00;69.50;;;;;;5013771;28;20032;-74
2022/09/07 01:53:49;;;;;;;3.83;1.80;;;23.00;69.50;;;;;;5013481;28;20029;-74
2022/09/07 01:56:27;;;;;;;4.30;1.92;;;23.00;69.50;;;;;;5015445;28;20025;-74
2022/09/07 01:58:58;;;;;;;4.28;2.00;;;23.00;69.50;;;;;;5013703;28;20029;-74
2022/09/07 02:01:27;;;;;;;3.35;1.77;;;23.00;69.50;;;;;;5013355;28;20044;-74
2022/09/07 02:04:04;;;;;;;5.18;2.20;;;23.00;69.50;;;;;;5013587;28;20080;-74
2022/09/07 02:06:49;;;;;;;4.50;1.85;;;23.00;69.50;;;;;;5013833;28;20026;-74
2022/09/07 02:09:19;;;;;;;4.28;1.90;;;23.00;69.50;;;;;;4995608;28;20137;-74
2022/09/07 02:11:46;;;;;;;4.72;1.73;;;23.00;69.50;;;;;;4990269;28;20053;-74
2022/09/07 02:14:23;;;;;;;3.33;1.90;;;23.00;69.60;;;;;;4990365;28;20050;-74
2022/09/07 02:17:07;;;;;;;4.15;1.98;;;22.90;69.50;;;;;;5007194;28;20473;-74
2022/09/07 02:19:35;;;;;;;6.63;1.92;;;22.90;69.50;;;;;;5022483;28;20033;-74
2022/09/07 02:22:03;;;;;;;4.57;2.00;;;22.90;69.70;;;;;;5094221;28;20131;-75
2022/09/07 02:24:34;;;;;;;4.47;2.00;;;23.00;69.70;;;;;;5111000;28;20056;-74
2022/09/07 02:27:22;;;;;;;7.68;2.40;;;23.00;69.80;;;;;;5094355;28;20023;-74
2022/09/07 02:29:48;;;;;;;4.97;2.55;;;23.00;69.70;;;;;;5110466;28;20483;-74
2022/09/07 02:32:13;;;;;;;5.25;2.00;;;22.90;69.70;;;;;;5112099;28;20031;-74
2022/09/07 02:34:39;;;;;;;10.43;2.20;;;22.90;69.70;;;;;;5093979;28;20024;-75
2022/09/07 02:37:05;;;;;;;6.50;2.03;;;23.00;69.80;;;;;;5112125;28;20020;-74
2022/09/07 02:39:31;;;;;;;9.27;2.30;;;23.00;69.80;;;;;;5094665;28;20107;-74
2022/09/07 02:41:56;;;;;;;4.10;1.75;;;23.00;69.80;;;;;;5114465;28;20495;-75
2022/09/07 02:44:30;;;;;;;3.28;1.73;;;23.00;69.80;;;;;;5115630;28;20612;-75
2022/09/07 02:47:23;;;;;;;5.60;2.00;;;23.00;69.80;;;;;;5114379;28;20035;-74
2022/09/07 02:50:31;;;;;;;13.48;1.90;;;23.00;69.80;;;;;;5114322;28;20376;-74
2022/09/07 02:53:24;;;;;;;8.35;2.45;;;22.90;69.70;;;;;;5026456;28;20141;-74
2022/09/07 02:56:10;;;;;;;6.75;2.05;;;22.90;69.70;;;;;;5012690;28;20034;-74
2022/09/07 02:58:38;;;;;;;4.70;1.90;;;22.90;69.70;;;;;;5012612;28;20048;-74
2022/09/07 03:01:42;;;;;;;5.82;1.75;;;23.00;69.90;;;;;;5013139;28;20073;-74
2022/09/07 03:04:52;;;;;;;7.50;2.25;;;22.90;69.80;;;;;;5009935;28;20038;-75
2022/09/07 03:07:27;;;;;;;8.98;1.90;;;23.00;70.00;;;;;;5000087;28;20061;-75
2022/09/07 03:09:53;;;;;;;3.60;1.88;;;23.00;69.90;;;;;;4992885;28;20125;-74
2022/09/07 03:12:19;;;;;;;6.25;1.90;;;23.00;70.00;;;;;;4975869;28;20109;-74
2022/09/07 03:14:45;;;;;;;5.93;1.50;;;23.00;69.90;;;;;;4976876;28;20441;-74
2022/09/07 03:17:11;;;;;;;7.47;1.67;;;23.00;69.90;;;;;;5025554;28;20056;-74
2022/09/07 03:19:36;;;;;;;9.27;1.80;;;23.00;69.90;;;;;;5015689;28;20033;-74
2022/09/07 03:22:03;;;;;;;6.53;2.22;;;22.90;69.90;;;;;;5031613;28;20033;-74
2022/09/07 03:24:28;;;;;;;5.03;2.00;;;22.90;69.90;;;;;;5031851;28;20037;-74
2022/09/07 03:26:54;;;;;;;8.23;2.00;;;22.90;69.90;;;;;;5032089;28;20029;-74
2022/09/07 03:29:19;;;;;;;3.40;1.63;;;23.00;69.90;;;;;;5052472;28;20088;-74
2022/09/07 03:31:45;;;;;;;3.17;1.77;;;22.90;69.90;;;;;;5114826;28;20024;-74
2022/09/07 03:34:11;;;;;;;4.95;1.88;;;22.90;69.80;;;;;;5113558;28;20019;-74
2022/09/07 03:36:36;;;;;;;3.78;1.83;;;22.90;69.90;;;;;;5114621;28;20432;-74
2022/09/07 03:39:03;;;;;;;5.65;2.08;;;22.90;69.90;;;;;;5114329;28;20027;-74
2022/09/07 03:41:29;;;;;;;6.32;1.85;;;23.00;69.90;;;;;;5113382;28;20024;-74
2022/09/07 03:43:54;;;;;;;5.32;1.90;;;22.90;69.80;;;;;;5114577;28;20034;-74
2022/09/07 03:46:20;;;;;;;3.78;1.83;;;22.90;69.80;;;;;;5114479;28;20073;-74
2022/09/07 03:48:46;;;;;;;4.72;1.98;;;22.90;69.80;;;;;;5113274;28;20040;-74
2022/09/07 03:51:13;;;;;;;3.85;1.65;;;22.90;69.80;;;;;;5113332;28;20507;-74
2022/09/07 03:53:40;;;;;;;5.03;1.83;;;22.90;69.80;;;;;;5112868;28;20556;-74
2022/09/07 03:56:11;;;;;;;5.88;1.92;;;22.90;69.80;;;;;;5096421;28;20450;-74
2022/09/07 03:58:37;;;;;;;4.82;1.83;;;22.90;69.70;;;;;;5114092;28;20107;-74
2022/09/07 04:01:17;;;;;;;4.32;1.77;;;22.90;69.80;;;;;;5096263;28;20020;-74
2022/09/07 04:03:43;;;;;;;6.93;1.83;;;22.90;69.70;;;;;;5113971;28;20424;-74
2022/09/07 04:06:08;;;;;;;4.00;1.85;;;22.90;69.70;;;;;;5113035;28;20016;-74
2022/09/07 04:08:35;;;;;;;4.07;1.70;;;22.90;69.70;;;;;;5095779;28;20120;-74
2022/09/07 04:11:01;;;;;;;6.07;1.98;;;22.90;69.70;;;;;;5073763;28;20023;-74
2022/09/07 04:13:27;;;;;;;4.95;1.80;;;22.90;69.70;;;;;;5073316;28;20028;-74
2022/09/07 04:15:53;;;;;;;3.63;1.90;;;22.90;69.70;;;;;;5083738;28;20073;-74
2022/09/07 04:18:19;;;;;;;5.93;1.83;;;22.90;69.70;;;;;;5113833;28;20035;-74
2022/09/07 04:20:44;;;;;;;7.53;1.98;;;22.90;69.70;;;;;;5113735;28;20068;-74
2022/09/07 04:23:10;;;;;;;4.38;1.58;;;22.90;69.80;;;;;;5112380;28;20035;-74
2022/09/07 04:25:36;;;;;;;4.00;2.00;;;22.90;69.70;;;;;;5112580;28;20486;-74
2022/09/07 04:28:02;;;;;;;5.65;1.95;;;22.90;69.70;;;;;;5113648;28;20035;-74
2022/09/07 04:30:27;;;;;;;6.03;1.95;;;22.90;69.70;;;;;;5113600;28;20016;-74
2022/09/07 04:32:53;;;;;;;2.72;1.60;;;22.90;69.70;;;;;;5113499;28;20046;-74
2022/09/07 04:35:19;;;;;;;2.58;1.73;;;22.90;69.70;;;;;;5113566;28;20502;-74
2022/09/07 04:37:44;;;;;;;5.88;1.90;;;22.90;69.70;;;;;;5111994;28;20032;-74
2022/09/07 04:40:10;;;;;;;5.53;1.80;;;22.90;69.70;;;;;;5113456;28;20031;-74
2022/09/07 04:42:36;;;;;;;7.03;1.80;;;22.90;69.70;;;;;;5113196;28;20026;-73
2022/09/07 04:45:02;;;;;;;3.15;1.80;;;22.90;69.70;;;;;;5112201;28;20020;-74
2022/09/07 04:47:29;;;;;;;3.97;1.63;;;22.90;69.70;;;;;;5112079;28;20512;-74
2022/09/07 04:49:55;;;;;;;4.88;1.90;;;22.90;69.70;;;;;;5112890;28;20023;-74
2022/09/07 04:52:21;;;;;;;2.97;1.42;;;22.90;69.80;;;;;;5112173;28;20023;-74
2022/09/07 04:54:49;;;;;;;5.53;1.80;;;22.90;69.70;;;;;;5111870;28;20467;-74
2022/09/07 04:57:17;;;;;;;3.85;1.88;;;22.80;69.80;;;;;;5113290;28;20062;-74
2022/09/07 04:59:42;;;;;;;3.13;1.70;;;22.80;69.70;;;;;;5111835;28;20535;-74
2022/09/07 05:02:08;;;;;;;3.58;1.60;;;22.90;69.80;;;;;;5112941;28;20023;-74
2022/09/07 05:04:34;;;;;;;3.88;1.52;;;22.80;69.70;;;;;;5111661;28;20023;-74
2022/09/07 05:07:00;;;;;;;4.22;1.75;;;22.80;69.70;;;;;;5112940;28;20011;-74
2022/09/07 05:09:26;;;;;;;3.60;1.70;;;22.80;69.80;;;;;;5080674;28;20040;-74
2022/09/07 05:11:51;;;;;;;4.55;1.80;;;22.80;69.80;;;;;;5072127;28;20052;-74
2022/09/07 05:14:17;;;;;;;3.63;1.50;;;22.80;69.80;;;;;;5071206;28;20020;-74
2022/09/07 05:16:43;;;;;;;3.88;1.58;;;22.80;69.80;;;;;;5098022;28;20023;-74
2022/09/07 05:19:12;;;;;;;5.28;1.90;;;22.80;69.80;;;;;;5112669;28;20038;-74
2022/09/07 05:21:38;;;;;;;3.20;1.58;;;22.80;69.80;;;;;;5111411;28;20024;-74
2022/09/07 05:24:03;;;;;;;2.42;1.58;;;22.80;69.80;;;;;;5111676;28;20467;-74
2022/09/07 05:26:31;;;;;;;3.13;1.45;;;22.80;69.90;;;;;;5111637;28;20015;-74
2022/09/07 05:28:57;;;;;;;3.85;1.95;;;22.80;69.80;;;;;;5111422;28;20015;-74
2022/09/07 05:31:23;;;;;;;2.08;1.30;;;22.80;69.80;;;;;;5112802;28;20495;-74
2022/09/07 05:33:51;;;;;;;3.80;1.60;;;22.80;69.80;;;;;;5107277;28;20050;-74
2022/09/07 05:36:16;;;;;;;3.95;1.70;;;22.80;69.80;;;;;;5090900;28;20016;-75
2022/09/07 05:38:42;;;;;;;3.05;1.58;;;22.80;69.90;;;;;;5092638;28;20122;-74
2022/09/07 05:41:15;;;;;;;4.32;1.30;;;22.80;70.00;;;;;;5092743;28;20036;-74
2022/09/07 05:43:41;;;;;;;3.63;1.35;;;22.80;69.90;;;;;;5092792;28;20111;-74
2022/09/07 05:46:07;;;;;;;4.25;1.80;;;22.80;70.00;;;;;;5091444;28;20104;-74
2022/09/07 05:48:33;;;;;;;3.28;1.70;;;22.80;70.00;;;;;;5092349;28;20098;-74
2022/09/07 05:50:58;;;;;;;4.05;1.58;;;22.80;71.00;;;;;;5092405;28;20028;-74
2022/09/07 05:53:24;;;;;;;2.30;1.30;;;22.80;70.00;;;;;;5091015;28;20404;-74
2022/09/07 05:55:50;;;;;;;4.18;1.73;;;22.80;68.40;;;;;;5091937;28;20024;-74
2022/09/07 05:58:16;;;;;;;4.03;1.52;;;22.80;68.20;;;;;;5092227;28;20020;-74
2022/09/07 06:00:42;;;;;;;5.25;1.63;;;22.70;68.50;;;;;;5092075;28;20047;-74
2022/09/07 06:03:08;;;;;;;6.82;1.77;;;22.70;68.60;;;;;;5090690;28;20020;-74
2022/09/07 06:05:34;;;;;;;3.67;1.40;;;22.70;68.50;;;;;;5092057;28;20043;-74
2022/09/07 06:07:59;;;;;;;4.50;1.70;;;22.70;68.50;;;;;;5088028;28;20404;-74
2022/09/07 06:10:25;;;;;;;4.35;1.58;;;22.70;68.40;;;;;;5071780;28;20031;-74
2022/09/07 06:12:51;;;;;;;5.68;1.95;;;22.70;68.30;;;;;;5072008;28;20036;-74
2022/09/07 06:15:17;;;;;;;3.05;1.42;;;22.70;68.20;;;;;;5075613;28;20028;-74
2022/09/07 06:17:43;;;;;;;3.08;1.50;;;22.70;68.20;;;;;;5115871;27;20561;-74
2022/09/07 06:20:09;;;;;;;2.58;1.35;;;22.70;68.20;;;;;;5116386;28;20107;-74
2022/09/07 06:22:36;;;;;;;4.13;1.58;;;22.70;68.20;;;;;;5116033;28;20372;-74
2022/09/07 06:25:02;;;;;;;4.45;1.55;;;22.60;68.20;;;;;;5114781;28;20463;-74
2022/09/07 06:27:28;;;;;;;5.15;1.80;;;22.60;68.20;;;;;;5105562;28;20467;-74
2022/09/07 06:29:54;;;;;;;7.30;1.83;;;22.60;68.20;;;;;;5095272;28;20052;-74
2022/09/07 06:32:19;;;;;;;14.80;2.67;;;22.60;68.20;;;;;;5093531;28;20043;-74
2022/09/07 06:34:45;;;;;;;20.48;3.45;;;22.70;68.40;;;;;;5094737;28;20028;-74
2022/09/07 06:37:11;;;;;;;17.33;3.25;;;22.60;68.40;;;;;;5095479;28;20028;-73
2022/09/07 06:39:36;;;;;;;8.70;2.63;;;22.60;68.40;;;;;;5095450;28;20035;-74
2022/09/07 06:42:03;;;;;;;7.07;2.20;;;22.60;68.50;;;;;;5095355;28;20027;-74
2022/09/07 06:44:29;;;;;;;10.93;2.58;;;22.60;68.40;;;;;;5095453;28;20058;-74
2022/09/07 06:46:55;;;;;;;13.20;2.70;;;22.60;68.40;;;;;;5094915;28;20105;-73
2022/09/07 06:49:22;;;;;;;14.20;3.47;;;22.60;68.50;;;;;;5095333;28;20482;-74
2022/09/07 06:51:48;;;;;;;14.43;3.08;;;22.60;68.50;;;;;;5095188;28;20020;-74
2022/09/07 06:54:13;;;;;;;11.82;2.90;;;22.60;68.50;;;;;;5093909;28;20387;-74
2022/09/07 06:56:39;;;;;;;14.98;3.30;;;22.60;68.70;;;;;;5095247;28;20382;-73
2022/09/07 06:59:05;;;;;;;12.30;3.63;;;22.60;68.60;;;;;;5094858;28;20070;-74
2022/09/07 07:01:32;;;;;;;12.90;3.40;;;22.60;68.70;;;;;;5094866;28;20496;-74
2022/09/07 07:03:58;;;;;;;15.05;3.50;;;22.60;68.70;;;;;;5093769;28;20027;-74
2022/09/07 07:06:34;;;;;;;15.20;3.47;;;22.60;68.70;;;;;;5095095;28;20016;-74
2022/09/07 07:08:59;;;;;;;10.32;3.42;;;22.60;68.70;;;;;;5081211;28;20117;-74
2022/09/07 07:11:25;;;;;;;14.35;3.65;;;22.60;68.70;;;;;;5073613;28;20492;-74
2022/09/07 07:13:51;;;;;;;14.55;3.95;;;22.60;68.70;;;;;;5073338;28;20036;-74
2022/09/07 07:16:16;;;;;;;10.27;3.40;;;22.50;68.70;;;;;;5092459;28;20023;-74
2022/09/07 07:18:42;;;;;;;10.27;2.97;;;22.60;68.70;;;;;;5115089;28;20399;-74
2022/09/07 07:21:12;;;;;;;11.73;3.72;;;22.60;68.70;;;;;;5115091;28;20073;-74
2022/09/07 07:23:38;;;;;;;12.35;3.50;;;22.50;68.70;;;;;;5096980;28;20451;-74
2022/09/07 07:26:25;;;;;;;13.93;3.60;;;22.50;68.70;;;;;;5113596;28;20108;-73
2022/09/07 07:28:52;;;;;;;13.18;3.47;;;22.50;68.70;;;;;;5099729;28;20038;-74
2022/09/07 07:31:18;;;;;;;11.45;3.55;;;22.50;68.70;;;;;;5113646;28;20487;-74
2022/09/07 07:33:45;;;;;;;11.30;3.55;;;22.50;68.70;;;;;;5114854;28;20020;-74
2022/09/07 07:36:20;;;;;;;12.50;3.65;;;22.50;68.70;;;;;;5113690;28;20020;-74
2022/09/07 07:38:50;;;;;;;14.23;3.80;;;22.50;68.70;;;;;;5114740;27;20015;-74
2022/09/07 07:41:18;;;;;;;12.90;3.60;;;22.50;68.70;;;;;;5113400;28;20028;-74
2022/09/07 07:43:43;;;;;;;13.30;3.75;;;22.50;68.70;;;;;;5114538;28;20102;-74
2022/09/07 07:46:13;;;;;;;10.70;3.13;;;22.50;68.70;;;;;;5114360;28;20111;-74
2022/09/07 07:48:38;;;;;;;7.82;3.25;;;22.50;68.70;;;;;;5113096;28;20089;-74
2022/09/07 07:51:05;;;;;;;11.40;3.28;;;22.50;68.70;;;;;;5114493;28;20433;-74
2022/09/07 07:53:35;;;;;;;9.15;3.22;;;22.40;68.60;;;;;;5114721;28;20045;-74
2022/09/07 07:56:01;;;;;;;14.82;3.83;;;22.50;68.70;;;;;;5114478;28;20050;-74
2022/09/07 07:58:27;;;;;;;10.18;3.70;;;22.50;68.70;;;;;;5112993;28;20024;-73
2022/09/07 08:00:53;;;;;;;15.60;3.22;;;22.40;68.70;;;;;;5114018;28;20088;-74
2022/09/07 08:03:20;;;;;;;12.05;3.25;;;22.50;68.70;;;;;;5114354;28;20073;-74
2022/09/07 08:05:45;;;;;;;9.30;3.25;;;22.50;68.70;;;;;;5096192;28;20114;-74
2022/09/07 08:08:11;;;;;;;13.60;4.10;;;22.40;68.70;;;;;;5102779;28;20103;-74
2022/09/07 08:10:37;;;;;;;14.98;3.33;;;22.50;68.70;;;;;;5073524;28;20484;-74
2022/09/07 08:13:03;;;;;;;13.45;3.67;;;22.50;68.70;;;;;;5072019;28;20028;-74
2022/09/07 08:15:30;;;;;;;10.98;3.45;;;22.50;68.70;;;;;;5078280;28;20027;-74
2022/09/07 08:17:56;;;;;;;11.02;2.97;;;22.50;68.60;;;;;;5113899;28;20030;-74
2022/09/07 08:20:22;;;;;;;9.30;3.20;;;22.40;68.70;;;;;;5112600;28;20022;-74
2022/09/07 08:22:50;;;;;;;10.50;3.03;;;22.40;68.70;;;;;;5113881;27;20398;-74
2022/09/07 08:25:16;;;;;;;11.48;3.50;;;22.40;68.70;;;;;;5113631;28;20103;-74
2022/09/07 08:27:42;;;;;;;14.60;3.95;;;22.40;68.70;;;;;;5113534;28;20392;-74
2022/09/07 08:30:09;;;;;;;15.00;3.35;;;22.40;68.70;;;;;;5112380;28;20102;-73
2022/09/07 08:32:34;;;;;;;10.43;2.97;;;22.40;68.70;;;;;;5113683;28;20050;-74
2022/09/07 08:35:00;;;;;;;14.45;3.78;;;22.40;68.70;;;;;;5095381;28;20055;-74
2022/09/07 08:37:26;;;;;;;11.43;3.63;;;22.40;68.70;;;;;;5113104;28;20019;-74
2022/09/07 08:39:52;;;;;;;9.20;3.33;;;22.40;68.70;;;;;;5112253;28;20027;-74
2022/09/07 08:42:25;;;;;;;11.45;3.65;;;22.40;68.70;;;;;;5112987;28;20024;-74
2022/09/07 08:45:13;;;;;;;9.50;3.30;;;22.40;68.70;;;;;;5112249;28;20020;-74
2022/09/07 08:47:48;;;;;;;8.05;3.05;;;22.40;68.70;;;;;;5097806;28;20035;-73
2022/09/07 08:50:17;;;;;;;8.43;3.15;;;22.40;68.70;;;;;;5095742;28;20443;-74
2022/09/07 08:52:58;;;;;;;8.43;3.25;;;22.40;68.70;;;;;;5112386;28;20027;-74
2022/09/07 08:55:46;;;;;;;10.82;3.25;;;22.40;68.70;;;;;;5095405;28;20030;-74
2022/09/07 08:58:45;;;;;;;11.80;2.97;;;22.40;68.70;;;;;;5096165;28;20364;-74
2022/09/07 09:01:15;;;;;;;9.85;3.17;;;22.40;68.70;;;;;;5097736;28;20031;-74
2022/09/07 09:03:41;;;;;;;9.77;2.90;;;22.30;68.70;;;;;;5111774;28;20019;-74
2022/09/07 09:06:46;;;;;;;9.35;2.95;;;22.40;68.70;;;;;;5111863;28;20115;-73
2022/09/07 09:09:26;;;;;;;9.00;3.15;;;22.40;68.80;;;;;;5084242;28;20047;-74
2022/09/07 09:12:33;;;;;;;8.15;2.88;;;22.40;69.80;;;;;;5071004;28;20139;-74
2022/09/07 09:15:15;;;;;;;8.70;3.17;;;22.30;68.60;;;;;;5030229;28;20084;-74
2022/09/07 09:18:12;;;;;;;5.85;2.72;;;22.30;68.70;;;;;;5032014;28;20029;-74
2022/09/07 09:20:55;;;;;;;6.72;3.13;;;22.30;68.60;;;;;;5030410;28;20100;-74
2022/09/07 09:23:25;;;;;;;9.07;3.10;;;22.30;68.70;;;;;;5015213;28;20486;-74
2022/09/07 09:25:55;;;;;;;10.88;3.35;;;22.30;69.00;;;;;;5030053;28;20033;-74
2022/09/07 09:28:21;;;;;;;7.93;3.10;;;22.30;68.70;;;;;;5030190;28;20026;-74
2022/09/07 09:30:47;;;;;;;9.65;2.88;;;22.30;68.70;;;;;;5030115;28;20128;-74
2022/09/07 09:33:17;;;;;;;9.68;3.08;;;22.30;68.70;;;;;;5013705;28;20053;-74
2022/09/07 09:35:43;;;;;;;6.65;3.08;;;22.30;68.70;;;;;;5030155;28;20608;-73
2022/09/07 09:38:31;;;;;;;6.75;2.63;;;22.30;68.70;;;;;;5013581;28;20068;-74
2022/09/07 09:41:11;;;;;;;6.60;2.85;;;22.30;68.60;;;;;;5013337;28;20406;-74
2022/09/07 09:43:53;;;;;;;7.18;2.80;;;22.30;68.70;;;;;;5030101;28;20164;-74
2022/09/07 09:46:20;;;;;;;6.72;2.90;;;22.30;68.70;;;;;;5013458;28;20128;-73
2022/09/07 09:49:16;;;;;;;7.45;2.67;;;22.30;68.70;;;;;;5029890;28;20177;-74
2022/09/07 09:51:44;;;;;;;11.27;3.03;;;22.30;68.60;;;;;;5044223;28;20051;-74
2022/09/07 09:54:27;;;;;;;6.78;2.70;;;22.30;68.70;;;;;;5075029;28;20028;-73
2022/09/07 09:56:53;;;;;;;7.93;2.92;;;22.30;68.70;;;;;;5074917;28;20025;-74
2022/09/07 09:59:22;;;;;;;7.60;2.95;;;22.30;68.70;;;;;;5076100;28;20021;-74
2022/09/07 10:01:48;;;;;;;8.40;3.20;;;22.30;68.70;;;;;;5074737;28;20028;-74
2022/09/07 10:04:24;;;;;;;7.70;2.90;;;22.30;68.70;;;;;;5075924;28;20043;-74
2022/09/07 10:06:53;;;;;;;6.22;2.33;;;22.30;68.70;;;;;;5075979;28;20140;-74
2022/09/07 10:09:37;;;;;;;7.53;2.80;;;22.30;68.70;;;;;;5057578;28;20031;-74
2022/09/07 10:12:03;;;;;;;6.82;2.85;;;22.30;68.60;;;;;;5074643;28;20457;-73
2022/09/07 10:14:32;;;;;;;7.53;2.50;;;22.30;68.70;;;;;;5074487;28;20115;-74
2022/09/07 10:16:58;;;;;;;7.95;2.60;;;22.30;68.60;;;;;;5104157;28;20031;-74
2022/09/07 10:19:34;;;;;;;8.65;2.70;;;22.30;68.70;;;;;;5115175;28;20020;-74
2022/09/07 10:22:04;;;;;;;6.18;2.60;;;22.30;68.60;;;;;;5115014;28;20024;-74
2022/09/07 10:24:37;;;;;;;6.45;2.30;;;22.30;68.70;;;;;;5114750;28;20062;-74
2022/09/07 10:27:24;;;;;;;4.93;2.13;;;22.30;68.60;;;;;;5097804;28;20024;-74
2022/09/07 10:29:50;;;;;;;8.18;2.63;;;22.30;68.60;;;;;;5116089;28;20027;-74
2022/09/07 10:32:33;;;;;;;9.13;2.75;;;22.30;68.70;;;;;;5114650;28;20507;-74
2022/09/07 10:34:58;;;;;;;5.90;2.25;;;22.30;68.70;;;;;;5114933;28;20035;-74
2022/09/07 10:37:32;;;;;;;6.00;2.58;;;22.30;68.70;;;;;;5115993;28;20024;-73
2022/09/07 10:40:02;;;;;;;5.35;2.50;;;22.30;68.70;;;;;;5115749;28;20023;-74
2022/09/07 10:42:35;;;;;;;6.32;2.67;;;22.30;68.80;;;;;;5115630;28;20024;-74
2022/09/07 10:45:13;;;;;;;8.10;2.97;;;22.30;68.70;;;;;;5097723;28;20035;-74
2022/09/07 10:47:48;;;;;;;9.10;2.90;;;22.20;68.70;;;;;;5098347;28;20486;-74
2022/09/07 10:50:29;;;;;;;9.02;2.60;;;22.20;68.60;;;;;;5114325;28;20036;-73
2022/09/07 10:52:58;;;;;;;8.07;2.80;;;22.20;68.70;;;;;;5115465;28;20024;-74
2022/09/07 10:55:31;;;;;;;7.82;2.30;;;22.20;68.70;;;;;;5115484;28;20264;-74
2022/09/07 10:58:12;;;;;;;5.63;2.17;;;22.20;68.70;;;;;;5098010;28;20024;-74
2022/09/07 11:00:59;;;;;;;7.40;2.40;;;22.20;68.70;;;;;;5114893;28;20020;-74
2022/09/07 11:04:03;;;;;;;5.38;2.22;;;22.20;68.70;;;;;;5114188;28;20028;-74
2022/09/07 11:06:36;;;;;;;5.88;2.47;;;22.30;68.70;;;;;;5063170;28;20548;-74
2022/09/07 11:09:17;;;;;;;6.22;2.58;;;22.30;68.80;;;;;;5080676;28;20403;-74
2022/09/07 11:11:44;;;;;;;9.18;2.80;;;22.30;68.80;;;;;;5074744;28;20025;-74
2022/09/07 11:14:14;;;;;;;7.30;2.20;;;22.20;68.70;;;;;;5073412;28;20025;-74
2022/09/07 11:16:48;;;;;;;7.28;2.65;;;22.20;68.70;;;;;;5098025;28;20453;-73
2022/09/07 11:19:17;;;;;;;7.22;2.33;;;22.20;68.70;;;;;;5115046;27;20115;-74
2022/09/07 11:21:46;;;;;;;4.78;1.90;;;22.20;68.70;;;;;;5113646;28;20012;-74
2022/09/07 11:24:20;;;;;;;6.82;2.40;;;22.20;68.70;;;;;;5113863;28;20068;-74
2022/09/07 11:26:52;;;;;;;5.63;2.38;;;22.20;68.70;;;;;;5097344;28;20019;-73
2022/09/07 11:29:24;;;;;;;11.10;3.28;;;22.20;68.70;;;;;;5114925;28;20036;-74
2022/09/07 11:31:52;;;;;;;6.85;2.30;;;22.20;68.80;;;;;;5114853;28;20527;-74
2022/09/07 11:34:32;;;;;;;6.63;2.17;;;22.20;68.70;;;;;;5113591;28;20019;-74
2022/09/07 11:37:02;;;;;;;5.40;2.45;;;22.20;68.70;;;;;;5114602;28;20016;-74
2022/09/07 11:39:30;;;;;;;7.47;2.42;;;22.20;69.70;;;;;;5114741;27;20020;-73
2022/09/07 11:41:59;;;;;;;8.63;2.08;;;22.20;68.70;;;;;;5096638;28;20158;-74
2022/09/07 11:44:45;;;;;;;8.00;2.30;;;22.20;68.70;;;;;;5114553;28;20019;-74
2022/09/07 11:47:58;;;;;;;7.88;2.35;;;22.20;68.70;;;;;;5096158;28;20047;-73
2022/09/07 11:50:24;;;;;;;5.15;2.05;;;22.20;68.70;;;;;;5107057;28;20176;-74
2022/09/07 11:52:57;;;;;;;6.03;1.92;;;22.20;68.70;;;;;;5096480;28;20095;-74
2022/09/07 11:55:26;;;;;;;4.15;1.80;;;22.20;68.70;;;;;;5096781;28;20041;-74
2022/09/07 11:58:12;;;;;;;4.72;1.80;;;22.20;68.70;;;;;;5113302;28;20031;-74
2022/09/07 12:00:49;;;;;;;8.35;2.50;;;22.20;68.70;;;;;;5113019;28;20517;-74
2022/09/07 12:03:46;;;;;;;3.88;1.73;;;22.20;68.70;;;;;;5113974;28;20390;-74
2022/09/07 12:06:27;;;;;;;5.80;2.47;;;22.20;68.70;;;;;;5114078;28;20073;-74
2022/09/07 12:08:58;;;;;;;4.38;1.85;;;22.20;68.70;;;;;;5075208;28;20017;-73
2022/09/07 12:11:30;;;;;;;6.43;2.47;;;22.20;68.80;;;;;;5072952;28;20039;-74
2022/09/07 12:14:02;;;;;;;6.50;2.40;;;22.20;68.70;;;;;;5073069;28;20059;-74
2022/09/07 12:16:27;;;;;;;8.50;2.10;;;22.20;68.80;;;;;;5093562;28;20394;-74
2022/09/07 12:19:30;;;;;;;4.30;1.80;;;22.20;68.80;;;;;;5114035;28;20028;-74
2022/09/07 12:21:56;;;;;;;8.50;2.25;;;22.20;68.70;;;;;;5113770;28;20031;-74
2022/09/07 12:24:52;;;;;;;6.78;2.22;;;22.30;68.70;;;;;;5112556;28;20031;-74
2022/09/07 12:27:20;;;;;;;6.03;2.20;;;22.20;68.70;;;;;;5113850;28;20475;-74
2022/09/07 12:30:09;;;;;;;5.30;2.05;;;22.20;68.80;;;;;;5113799;28;20495;-74
2022/09/07 12:32:47;;;;;;;5.20;2.15;;;22.30;68.80;;;;;;5030820;28;20416;-74
2022/09/07 12:35:37;;;;;;;5.93;2.20;;;22.20;68.80;;;;;;5030836;28;20045;-74
2022/09/07 12:38:12;;;;;;;4.15;1.70;;;22.20;68.80;;;;;;5014662;28;20130;-74
2022/09/07 12:40:38;;;;;;;4.93;1.95;;;22.20;68.80;;;;;;5030887;28;20187;-74
2022/09/07 12:43:12;;;;;;;3.90;1.50;;;22.20;68.80;;;;;;5030738;28;20544;-74
2022/09/07 12:45:38;;;;;;;3.13;1.88;;;22.30;68.90;;;;;;5030954;28;20085;-74
2022/09/07 12:48:15;;;;;;;6.03;2.10;;;22.30;68.90;;;;;;5030670;28;20056;-74
2022/09/07 12:51:11;;;;;;;4.97;1.90;;;22.30;68.80;;;;;;5030691;28;20112;-74
2022/09/07 12:53:44;;;;;;;5.07;1.98;;;22.30;68.70;;;;;;5014219;28;20025;-74
2022/09/07 12:56:27;;;;;;;;;;;22.30;68.80;;;;;;5014711;28;20043;-73
2022/09/07 12:58:57;;;;;;;4.13;1.80;;;22.30;68.70;;;;;;5014285;28;19911;-73
2022/09/07 13:01:25;;;;;;;4.93;1.50;;;22.30;68.80;;;;;;5030494;28;20036;-73
2022/09/07 13:04:15;;;;;;;5.75;1.90;;;22.30;68.80;;;;;;5030209;28;20469;-74
2022/09/07 13:06:52;;;;;;;4.30;1.80;;;22.30;68.70;;;;;;5030483;28;20096;-73